ADDS METAR Data INFO
IDs: Format: Raw Decoded Include TAF

Data at: 0254 UTC 21 Jan 2018

KMFV 210235Z AUTO 25005KT 10SM CLR 08/01 A3010 RMK AO2 T00760005
KMFV 210215Z AUTO 24003KT 10SM CLR 07/00 A3010 RMK AO2 T00690001
KMFV 210155Z AUTO 25004KT 10SM CLR 05/00 A3009 RMK AO2 T00490000
KMFV 210135Z AUTO 24004KT 10SM CLR 05/00 A3009 RMK AO2 T00471002
KMFV 210115Z AUTO 23005KT 10SM CLR 06/00 A3008 RMK AO2 T00621001
KMFV 210055Z AUTO 23006KT 10SM CLR 07/00 A3008 RMK AO2 T00661001
KMFV 210035Z AUTO 24005KT 10SM CLR 06/00 A3008 RMK AO2 T00631004
KMFV 210015Z AUTO 24006KT 10SM CLR 05/00 A3007 RMK AO2 T00491005
KMFV 202355Z AUTO 25004KT 10SM CLR 05/00 A3007 RMK AO2 6//// T00501003 10135 20050
KMFV 202335Z AUTO 00000KT 10SM CLR 06/00 A3006 RMK AO2 T00551001
KMFV 202315Z AUTO 00000KT 10SM CLR 06/M01 A3006 RMK AO2 T00601007
KMFV 202255Z AUTO 23004KT 10SM CLR 07/M01 A3004 RMK AO2 T00691007
KMFV 202235Z AUTO 22004KT 10SM CLR 08/M01 A3004 RMK AO2 T00811007
KMFV 202215Z AUTO 23003KT 10SM CLR 11/M02 A3003 RMK AO2 T01091016
KMFV 202155Z AUTO 25003KT 10SM CLR 12/M02 A3003 RMK AO2 T01241020
KMFV 202135Z AUTO 23005KT 10SM CLR 13/M02 A3002 RMK AO2 T01261017
KMFV 202115Z AUTO 24005KT 10SM CLR 13/M02 A3002 RMK AO2 T01301021
KMFV 202055Z AUTO 22008KT 10SM CLR 13/M02 A3002 RMK AO2 T01301021
KMFV 202035Z AUTO 23007KT 10SM CLR 13/M02 A3001 RMK AO2 T01341025
KMFV 202015Z AUTO 25008KT 10SM CLR 13/M03 A3001 RMK AO2 T01331027
KMFV 201955Z AUTO 26007KT 10SM CLR 13/M02 A3001 RMK AO2 T01341025
KMFV 201935Z AUTO 23011KT 10SM CLR 13/M03 A3001 RMK AO2 T01301029
KMFV 201915Z AUTO 22008KT 10SM CLR 13/M03 A3000 RMK AO2 T01291033
KMFV 201855Z AUTO 23008KT 10SM CLR 13/M04 A3000 RMK AO2 T01301037
KMFV 201835Z AUTO 24006KT 10SM CLR 13/M04 A3001 RMK AO2 T01301043
KMFV 201815Z AUTO 27008KT 10SM CLR 13/M04 A3002 RMK AO2 T01251043
KMFV 201755Z AUTO 26009KT 10SM CLR 12/M05 A3002 RMK AO2 T01201047 10120 20027
KMFV 201735Z AUTO 26008KT 10SM CLR 12/M05 A3003 RMK AO2 T01161049
KMFV 201715Z AUTO 26011G16KT 10SM CLR 11/M05 A3004 RMK AO2 T01091054
KMFV 201655Z AUTO 26009KT 10SM CLR 10/M06 A3005 RMK AO2 T01041058
KMFV 201635Z AUTO 26013G17KT 10SM CLR 10/M06 A3006 RMK AO2 T01001059
KMFV 201615Z AUTO 25011KT 10SM CLR 10/M06 A3007 RMK AO2 T00951060
KMFV 201555Z AUTO 27012G18KT 10SM CLR 10/M06 A3007 RMK AO2 T00981062
KMFV 201535Z AUTO 25010G15KT 10SM CLR 10/M07 A3007 RMK AO2 T00951066
KMFV 201515Z AUTO 25009KT 10SM CLR 09/M07 A3007 RMK AO2 T00861069
KMFV 201455Z AUTO 24008G14KT 10SM CLR 08/M07 A3007 RMK AO2 T00791070
KMFV 201435Z AUTO 24008KT 10SM CLR 08/M07 A3007 RMK AO2 T00781074
KMFV 201415Z AUTO 25007KT 10SM CLR 07/M07 A3007 RMK AO2 T00711069
KMFV 201355Z AUTO 24007KT 10SM CLR 06/M07 A3007 RMK AO2 T00601066
KMFV 201335Z AUTO 24008KT 10SM CLR 05/M07 A3007 RMK AO2 T00531068
KMFV 201315Z AUTO 24006KT 10SM CLR 05/M07 A3006 RMK AO2 T00481073
KMFV 201255Z AUTO 24005KT 10SM CLR 04/M08 A3006 RMK AO2 T00411078
KMFV 201235Z AUTO 24005KT 10SM CLR 03/M07 A3006 RMK AO2 T00311075
KMFV 201215Z AUTO 24005KT 10SM CLR 03/M07 A3005 RMK AO2 T00271072
KMFV 201155Z AUTO 23007KT 10SM CLR 03/M07 A3004 RMK AO2 T00271070 10037 20013
KMFV 201135Z AUTO 24006KT 10SM CLR 03/M07 A3005 RMK AO2 T00251068
KMFV 201115Z AUTO 23006KT 10SM CLR 03/M07 A3004 RMK AO2 T00251067
KMFV 201055Z AUTO 23005KT 10SM CLR 03/M07 A3004 RMK AO2 T00261069
KMFV 201035Z AUTO 23005KT 10SM CLR 03/M07 A3004 RMK AO2 T00301070
KMFV 201015Z AUTO 23005KT 10SM CLR 03/M07 A3004 RMK AO2 T00321072
KMFV 200955Z AUTO 24005KT 10SM CLR 04/M07 A3004 RMK AO2 T00361074
KMFV 200935Z AUTO 24006KT 10SM CLR 04/M07 A3004 RMK AO2 T00351074
KMFV 200915Z AUTO 24006KT 10SM CLR 04/M07 A3004 RMK AO2 T00351075
KMFV 200855Z AUTO 22006KT 10SM CLR 03/M08 A3003 RMK AO2 T00321076
KMFV 200835Z AUTO 23005KT 10SM CLR 03/M07 A3004 RMK AO2 T00321075
KMFV 200815Z AUTO 23005KT 10SM CLR 03/M08 A3005 RMK AO2 T00311077
KMFV 200755Z AUTO 23003KT 10SM CLR 02/M08 A3005 RMK AO2 T00221077
KMFV 200735Z AUTO 22004KT 10SM CLR 03/M08 A3005 RMK AO2 T00331080
KMFV 200715Z AUTO 21004KT 10SM CLR 02/M08 A3005 RMK AO2 T00221083
KMFV 200655Z AUTO 21004KT 10SM CLR 01/M08 A3005 RMK AO2 T00141080
KMFV 200635Z AUTO 23004KT 10SM CLR 03/M09 A3005 RMK AO2 T00271089
KMFV 200615Z AUTO 23005KT 10SM CLR 03/M09 A3006 RMK AO2 T00261088
KMFV 200555Z AUTO 23005KT 10SM CLR 02/M09 A3006 RMK AO2 T00231087 10024 21016
KMFV 200535Z AUTO 22004KT 10SM CLR 02/M09 A3007 RMK AO2 T00211086
KMFV 200515Z AUTO 22006KT 10SM CLR 02/M08 A3007 RMK AO2 T00201082
KMFV 200455Z AUTO 21006KT 10SM CLR M01/M06 A3007 RMK AO2 T10101062 400981052
KMFV 200435Z AUTO 21006KT 10SM CLR M01/M05 A3008 RMK AO2 T10071053
KMFV 200415Z AUTO 20005KT 10SM CLR M01/M05 A3008 RMK AO2 T10141054
KMFV 200355Z AUTO 21005KT 10SM CLR M01/M04 A3009 RMK AO2 T10101045
KMFV 200335Z AUTO 21004KT 10SM CLR 00/M06 A3009 RMK AO2 T10051056
KMFV 200315Z AUTO 21004KT 10SM CLR 02/M06 A3009 RMK AO2 T00151063
KMFV 200255Z AUTO 21005KT 10SM CLR 02/M06 A3009 RMK AO2 T00201063
KMFV 200235Z AUTO 21006KT 10SM CLR 01/M06 A3008 RMK AO2 T00071056
KMFV 200215Z AUTO 19006KT 10SM CLR 00/M05 A3009 RMK AO2 T00011053
KMFV 200155Z AUTO 19005KT 10SM CLR 01/M05 A3009 RMK AO2 T00051051
KMFV 200135Z AUTO 19006KT 10SM CLR 00/M05 A3009 RMK AO2 T00031055
KMFV 200115Z AUTO 18006KT 10SM CLR 01/M06 A3009 RMK AO2 T00071061
KMFV 200055Z AUTO 17006KT 10SM CLR M01/M05 A3009 RMK AO2 T10111051
KMFV 200035Z AUTO 17004KT 10SM CLR 00/M06 A3009 RMK AO2 T10031058
KMFV 200015Z AUTO 18003KT 10SM CLR 00/M06 A3009 RMK AO2 T10021060
KMFV 192355Z AUTO 18005KT 10SM CLR 00/M07 A3009 RMK AO2 T00001066 10098 20000
KMFV 192335Z AUTO 17004KT 10SM CLR 00/M06 A3008 RMK AO2 T00031059
KMFV 192315Z AUTO 14003KT 10SM CLR 01/M05 A3008 RMK AO2 T00051054
KMFV 192255Z AUTO 15003KT 10SM CLR 02/M06 A3008 RMK AO2 T00151060
KMFV 192235Z AUTO 00000KT 10SM CLR 03/M06 A3008 RMK AO2 T00251062
KMFV 192215Z AUTO 00000KT 10SM CLR 05/M07 A3008 RMK AO2 T00451066
KMFV 192155Z AUTO 20003KT 10SM CLR 07/M10 A3008 RMK AO2 T00711098
KMFV 192135Z AUTO 21003KT 10SM CLR 08/M09 A3008 RMK AO2 T00761089
KMFV 192115Z AUTO 23004KT 10SM CLR 08/M07 A3008 RMK AO2 T00791074
KMFV 192055Z AUTO 25004KT 10SM CLR 09/M08 A3008 RMK AO2 T00851085
KMFV 192035Z AUTO 26005KT 10SM CLR 09/M10 A3008 RMK AO2 T00901104
KMFV 192015Z AUTO 28004KT 10SM CLR 09/M07 A3008 RMK AO2 T00901074
KMFV 191955Z AUTO 26003KT 10SM CLR 09/M08 A3007 RMK AO2 T00921083
KMFV 191935Z AUTO 26003KT 10SM CLR 09/M06 A3007 RMK AO2 T00931060
KMFV 191920Z AUTO 22004KT 10SM CLR 09/M05 A3007 RMK AO2 T00911051
KMFV 191855Z AUTO 26005KT 10SM CLR 10/M07 A3008 RMK AO2 T00961066
KMFV 191835Z AUTO 24004KT 10SM CLR 09/M06 A3008 RMK AO2 T00911062
KMFV 191815Z AUTO 23003KT 10SM CLR 09/M08 A3009 RMK AO2 T00881081
KMFV 191755Z AUTO 00000KT 10SM CLR 08/M07 A3011 RMK AO2 T00781072 10080 21048
KMFV 191735Z AUTO 30003KT 10SM CLR 08/M07 A3012 RMK AO2 T00751073
KMFV 191715Z AUTO 31003KT 10SM CLR 07/M08 A3013 RMK AO2 T00701081
KMFV 191655Z AUTO 00000KT 10SM CLR 07/M08 A3014 RMK AO2 T00651078
KMFV 191635Z AUTO 28003KT 10SM CLR 06/M08 A3015 RMK AO2 T00591082
KMFV 191615Z AUTO 29005KT 10SM CLR 05/M08 A3016 RMK AO2 T00511084
KMFV 191555Z AUTO 30006KT 10SM CLR 05/M08 A3017 RMK AO2 T00511079
KMFV 191535Z AUTO 30005KT 10SM CLR 05/M07 A3017 RMK AO2 T00471066
KMFV 191515Z AUTO 26004KT 10SM CLR 04/M06 A3017 RMK AO2 T00391058
KMFV 191455Z AUTO 26005KT 10SM CLR 03/M05 A3017 RMK AO2 T00341051